createdAt,value
2022-08-19T00:02:39.590Z,50.16
2022-08-19T00:05:52.714Z,50.23
2022-08-19T00:08:55.232Z,50.45
2022-08-19T00:11:58.759Z,50.69
2022-08-19T00:15:00.808Z,50.46
2022-08-19T00:18:03.230Z,50.50
2022-08-19T00:21:09.632Z,50.44
2022-08-19T00:24:14.765Z,50.81
2022-08-19T00:27:25.619Z,50.83
2022-08-19T00:30:29.292Z,50.40
2022-08-19T00:33:35.410Z,50.41
2022-08-19T00:36:38.490Z,51.20
2022-08-19T00:39:40.703Z,51.08
2022-08-19T00:42:44.063Z,50.75
2022-08-19T00:45:46.198Z,51.17
2022-08-19T00:48:48.721Z,50.23
2022-08-19T00:51:54.787Z,50.67
2022-08-19T00:54:59.192Z,51.02
2022-08-19T00:58:09.006Z,50.70
2022-08-19T01:01:11.870Z,50.39
2022-08-19T01:04:14.591Z,50.29
2022-08-19T01:07:19.736Z,51.27
2022-08-19T01:10:26.186Z,51.38
2022-08-19T01:13:44.509Z,51.47
2022-08-19T01:16:55.419Z,51.30
2022-08-19T01:19:57.875Z,51.67
2022-08-19T01:23:00.198Z,52.15
2022-08-19T01:26:02.620Z,51.99
2022-08-19T01:29:05.235Z,51.54
2022-08-19T01:32:33.226Z,51.66
2022-08-19T01:35:36.780Z,52.12
2022-08-19T01:38:44.122Z,52.70
2022-08-19T01:41:47.973Z,51.57
2022-08-19T01:44:50.859Z,51.35
2022-08-19T01:48:01.277Z,51.69
2022-08-19T01:51:05.660Z,52.57
2022-08-19T01:54:09.817Z,52.62
2022-08-19T01:57:15.326Z,51.85
2022-08-19T02:00:20.065Z,51.46
2022-08-19T02:03:23.699Z,51.84
2022-08-19T02:06:26.993Z,52.56
2022-08-19T02:09:29.565Z,52.20
2022-08-19T02:12:31.724Z,52.63
2022-08-19T02:15:34.187Z,51.86
2022-08-19T02:18:36.487Z,51.89
2022-08-19T02:21:39.089Z,52.38
2022-08-19T02:24:41.448Z,53.16
2022-08-19T02:27:44.487Z,53.46
2022-08-19T02:30:48.149Z,52.92
2022-08-19T02:33:51.425Z,53.96
2022-08-19T02:36:53.569Z,54.11
2022-08-19T02:39:56.380Z,53.84
2022-08-19T02:42:58.507Z,54.32
2022-08-19T02:46:01.289Z,54.67
2022-08-19T02:49:07.274Z,54.04
2022-08-19T02:52:09.905Z,54.38
2022-08-19T02:55:12.072Z,54.56
2022-08-19T02:58:16.494Z,54.95
2022-08-19T03:01:43.009Z,55.19
2022-08-19T03:04:45.751Z,55.36
2022-08-19T03:07:47.891Z,54.97
2022-08-19T03:10:50.287Z,55.57
2022-08-19T03:13:54.393Z,55.61
2022-08-19T03:16:56.794Z,55.92
2022-08-19T03:19:58.940Z,56.44
2022-08-19T03:23:01.362Z,56.14
2022-08-19T03:26:15.884Z,56.72
2022-08-19T03:29:30.799Z,56.60
2022-08-19T03:32:33.848Z,56.08
2022-08-19T03:35:40.030Z,56.45
2022-08-19T03:38:56.412Z,56.21
2022-08-19T03:42:45.452Z,56.18
2022-08-19T03:45:25.481Z,56.42
2022-08-19T03:48:27.954Z,56.52
2022-08-19T03:51:32.923Z,56.52
2022-08-19T03:54:36.167Z,56.27
2022-08-19T03:57:38.300Z,56.00
2022-08-19T04:00:43.844Z,56.58
2022-08-19T04:03:47.467Z,56.10
2022-08-19T04:06:50.183Z,55.77
2022-08-19T04:09:52.978Z,56.52
2022-08-19T04:12:55.166Z,57.58
2022-08-19T04:15:57.720Z,58.51
2022-08-19T04:19:01.807Z,60.36
2022-08-19T04:22:05.065Z,56.73
2022-08-19T04:25:07.438Z,57.42
2022-08-19T04:28:12.179Z,56.78
2022-08-19T04:31:20.460Z,55.81
2022-08-19T04:34:27.657Z,54.00
2022-08-19T04:37:35.058Z,54.35
2022-08-19T04:41:02.059Z,53.87
2022-08-19T04:44:04.664Z,52.86
2022-08-19T04:47:11.347Z,53.71
2022-08-19T04:50:13.662Z,54.35
2022-08-19T04:53:16.278Z,53.52
2022-08-19T04:56:22.686Z,52.29
2022-08-19T04:59:25.045Z,51.43
2022-08-19T05:02:27.162Z,51.05
2022-08-19T05:05:29.579Z,50.88
2022-08-19T05:08:47.858Z,50.93
2022-08-19T05:11:53.826Z,51.07
2022-08-19T05:14:57.743Z,52.07
2022-08-19T05:18:18.625Z,49.56
2022-08-19T05:21:42.818Z,49.32
2022-08-19T05:25:09.388Z,47.75
2022-08-19T05:28:07.505Z,46.92
2022-08-19T05:31:09.945Z,47.17
2022-08-19T05:34:20.282Z,46.32
2022-08-19T05:37:23.184Z,46.31
2022-08-19T05:40:25.300Z,45.63
2022-08-19T05:43:29.257Z,43.92
2022-08-19T05:46:31.402Z,41.06
2022-08-19T05:49:37.069Z,39.79
2022-08-19T05:52:54.256Z,37.38
2022-08-19T05:55:56.682Z,35.81
2022-08-19T05:59:02.084Z,32.66
2022-08-19T06:02:07.543Z,29.74
2022-08-19T06:05:10.709Z,29.75
2022-08-19T06:08:12.880Z,28.50
2022-08-19T06:11:35.826Z,29.52
2022-08-19T06:14:41.693Z,26.83
2022-08-19T06:17:47.756Z,27.17
2022-08-19T06:20:58.445Z,26.15
2022-08-19T06:24:01.279Z,27.08
2022-08-19T06:27:06.609Z,27.40
2022-08-19T06:30:09.611Z,26.59
2022-08-19T06:33:11.621Z,28.33
2022-08-19T06:36:32.327Z,30.12
2022-08-19T06:39:37.572Z,29.54
2022-08-19T06:42:40.288Z,26.53
2022-08-19T06:45:53.321Z,24.08
2022-08-19T06:48:56.495Z,25.26
2022-08-19T06:51:59.515Z,24.65
2022-08-19T06:55:06.550Z,23.03
2022-08-19T06:58:10.193Z,23.02
2022-08-19T07:01:12.708Z,23.02
2022-08-19T07:04:18.980Z,23.62
2022-08-19T07:07:23.200Z,23.74
2022-08-19T07:10:26.214Z,23.08
2022-08-19T07:13:28.636Z,23.87
2022-08-19T07:16:31.106Z,25.01
2022-08-19T07:19:35.163Z,23.90
2022-08-19T07:22:41.541Z,24.05
2022-08-19T07:25:44.572Z,22.94
2022-08-19T07:28:51.524Z,24.82
2022-08-19T07:31:57.387Z,26.57
2022-08-19T07:35:20.996Z,27.40
2022-08-19T07:38:28.111Z,28.54
2022-08-19T07:41:31.695Z,28.73
2022-08-19T07:44:35.557Z,29.71
2022-08-19T07:47:49.020Z,29.45
2022-08-19T07:50:58.961Z,29.67
2022-08-19T07:54:01.621Z,31.54
2022-08-19T07:57:04.988Z,31.73
2022-08-19T08:00:08.208Z,31.87
2022-08-19T08:03:16.633Z,32.20
2022-08-19T08:06:38.153Z,32.51
2022-08-19T08:09:42.916Z,32.15
2022-08-19T08:13:09.342Z,32.86
2022-08-19T08:16:14.996Z,32.88
2022-08-19T08:19:25.610Z,32.23
2022-08-19T08:22:46.742Z,32.75
2022-08-19T08:25:49.941Z,34.09
2022-08-19T08:28:53.290Z,32.53
2022-08-19T08:31:59.630Z,31.73
2022-08-19T08:35:02.424Z,31.73
2022-08-19T08:38:05.272Z,31.48
2022-08-19T08:41:20.203Z,29.80
2022-08-19T08:44:38.123Z,30.49
2022-08-19T08:47:42.483Z,30.78
2022-08-19T08:50:48.545Z,30.27
2022-08-19T08:53:55.960Z,29.90
2022-08-19T08:56:59.412Z,30.77
2022-08-19T09:00:07.213Z,31.40
2022-08-19T09:03:31.481Z,31.58
2022-08-19T09:06:37.793Z,31.21
2022-08-19T09:09:49.522Z,31.67
2022-08-19T09:13:10.375Z,31.63
2022-08-19T09:16:21.767Z,31.63
2022-08-19T09:19:31.478Z,30.99
2022-08-19T09:22:37.200Z,30.73
2022-08-19T09:25:41.097Z,30.11
2022-08-19T09:28:48.799Z,30.11
2022-08-19T09:31:51.152Z,30.21
2022-08-19T09:34:55.646Z,30.35
2022-08-19T09:38:00.609Z,29.86
2022-08-19T09:41:05.685Z,29.92
2022-08-19T09:44:09.269Z,30.28
2022-08-19T09:47:14.712Z,29.55
2022-08-19T09:50:17.815Z,28.95
2022-08-19T09:53:23.445Z,28.35
2022-08-19T09:56:28.921Z,26.65
2022-08-19T09:59:31.367Z,25.57
2022-08-19T10:02:36.355Z,24.31
2022-08-19T10:05:54.475Z,24.39
2022-08-19T10:08:57.235Z,25.50
2022-08-19T10:12:02.580Z,26.08
2022-08-19T10:15:07.098Z,26.03
2022-08-19T10:18:09.804Z,26.43
2022-08-19T10:21:18.680Z,25.75
2022-08-19T10:24:21.457Z,26.80
2022-08-19T10:27:24.214Z,25.94
2022-08-19T10:30:28.829Z,25.48
2022-08-19T10:33:39.213Z,25.66
2022-08-19T10:36:56.378Z,24.83
2022-08-19T10:40:04.511Z,25.68
2022-08-19T10:43:07.431Z,23.43
2022-08-19T10:46:16.436Z,23.05
2022-08-19T10:49:20.166Z,22.00
2022-08-19T10:52:34.938Z,22.67
2022-08-19T10:55:59.630Z,22.38
2022-08-19T10:59:04.274Z,22.44
2022-08-19T11:02:10.813Z,21.59
2022-08-19T11:05:14.430Z,20.87
2022-08-19T11:08:23.074Z,20.93
2022-08-19T11:11:26.544Z,20.18
2022-08-19T11:14:29.088Z,20.39
2022-08-19T11:17:36.907Z,21.00
2022-08-19T11:20:39.287Z,19.69
2022-08-19T11:23:41.375Z,20.20
2022-08-19T11:26:44.468Z,19.06
2022-08-19T11:29:46.508Z,17.92
2022-08-19T11:32:49.659Z,18.78
2022-08-19T11:35:51.843Z,18.92
2022-08-19T11:38:54.743Z,19.24
2022-08-19T11:41:59.177Z,20.02
2022-08-19T11:45:01.788Z,19.38
2022-08-19T11:48:04.499Z,18.68
2022-08-19T11:51:10.349Z,19.14
2022-08-19T11:54:15.120Z,17.91
2022-08-19T11:57:17.970Z,17.63
2022-08-19T12:00:20.344Z,19.16
2022-08-19T12:03:23.196Z,18.43
2022-08-19T12:06:30.014Z,19.11
2022-08-19T12:09:33.220Z,17.04
2022-08-19T12:12:35.571Z,18.13
2022-08-19T12:15:39.285Z,19.52
2022-08-19T12:18:47.223Z,20.09
2022-08-19T12:21:50.332Z,20.31
2022-08-19T12:24:54.197Z,20.95
2022-08-19T12:27:57.596Z,20.91
2022-08-19T12:31:00.451Z,21.26
2022-08-19T12:34:04.863Z,21.24
2022-08-19T12:37:07.467Z,20.93
2022-08-19T12:40:12.675Z,22.12
2022-08-19T12:43:16.568Z,23.11
2022-08-19T12:46:20.425Z,21.56
2022-08-19T12:49:52.514Z,20.73
2022-08-19T12:52:49.043Z,20.06
2022-08-19T12:55:58.717Z,19.63
2022-08-19T12:59:05.715Z,20.74
2022-08-19T13:02:08.758Z,18.74
2022-08-19T13:05:14.150Z,19.78
2022-08-19T13:08:16.466Z,19.92
2022-08-19T13:11:21.512Z,20.54
2022-08-19T13:14:23.968Z,17.92
2022-08-19T13:17:26.382Z,18.55
2022-08-19T13:20:28.693Z,18.73
2022-08-19T13:23:31.520Z,19.06
2022-08-19T13:26:33.907Z,18.85
2022-08-19T13:29:55.043Z,19.83
2022-08-19T13:33:12.366Z,19.78
2022-08-19T13:36:14.737Z,20.67
2022-08-19T13:39:17.305Z,20.36
2022-08-19T13:42:20.202Z,20.66
2022-08-19T13:45:25.330Z,20.56
2022-08-19T13:48:28.112Z,21.31
2022-08-19T13:51:30.288Z,21.63
2022-08-19T13:54:33.414Z,22.06
2022-08-19T13:57:36.240Z,21.39
2022-08-19T14:00:45.538Z,23.07
2022-08-19T14:03:48.324Z,25.15
2022-08-19T14:06:50.461Z,27.17
2022-08-19T14:09:52.844Z,29.80
2022-08-19T14:12:57.262Z,30.83
2022-08-19T14:15:59.650Z,31.69
2022-08-19T14:19:02.006Z,31.83
2022-08-19T14:22:06.246Z,32.06
2022-08-19T14:25:11.405Z,31.99
2022-08-19T14:28:13.856Z,31.96
2022-08-19T14:31:19.822Z,32.41
2022-08-19T14:34:23.112Z,32.42
2022-08-19T14:37:25.286Z,32.47
2022-08-19T14:40:30.460Z,32.95
2022-08-19T14:43:32.740Z,32.71
2022-08-19T14:46:35.280Z,32.77
2022-08-19T14:49:41.193Z,32.29
2022-08-19T14:52:47.370Z,32.59
2022-08-19T14:55:49.612Z,32.88
2022-08-19T14:58:52.861Z,32.12
2022-08-19T15:01:55.067Z,31.62
2022-08-19T15:04:58.093Z,31.03
2022-08-19T15:08:04.616Z,30.84
2022-08-19T15:11:15.854Z,30.21
2022-08-19T15:14:18.012Z,30.16
2022-08-19T15:17:20.445Z,29.28
2022-08-19T15:20:23.461Z,29.33
2022-08-19T15:23:26.314Z,29.08
2022-08-19T15:26:28.998Z,29.06
2022-08-19T15:29:31.489Z,29.15
2022-08-19T15:32:33.529Z,29.46
2022-08-19T15:35:35.927Z,30.34
2022-08-19T15:38:41.111Z,29.95
2022-08-19T15:41:46.558Z,30.28
2022-08-19T15:44:48.746Z,30.31
2022-08-19T15:47:52.854Z,30.61
2022-08-19T15:50:54.969Z,30.31
2022-08-19T15:53:59.610Z,30.59
2022-08-19T15:57:20.370Z,30.84
2022-08-19T16:00:41.177Z,30.62
2022-08-19T16:04:02.055Z,31.07
2022-08-19T16:07:04.491Z,30.94
2022-08-19T16:10:25.889Z,32.22
2022-08-19T16:13:29.689Z,31.84
2022-08-19T16:16:34.169Z,30.67
2022-08-19T16:19:36.366Z,31.12
2022-08-19T16:22:40.146Z,31.90
2022-08-19T16:25:42.297Z,31.47
2022-08-19T16:28:45.279Z,31.32
2022-08-19T16:31:50.925Z,32.44
2022-08-19T16:34:53.650Z,31.94
2022-08-19T16:37:55.960Z,31.59
2022-08-19T16:41:00.502Z,32.31
2022-08-19T16:44:02.957Z,32.80
2022-08-19T16:47:05.497Z,32.75
2022-08-19T16:50:08.009Z,32.91
2022-08-19T16:53:10.399Z,33.54
2022-08-19T16:56:12.781Z,33.98
2022-08-19T16:59:16.590Z,34.48
2022-08-19T17:02:20.432Z,34.58
2022-08-19T17:05:24.677Z,35.07
2022-08-19T17:08:26.856Z,35.31
2022-08-19T17:11:32.798Z,35.15
2022-08-19T17:14:34.905Z,35.55
2022-08-19T17:17:37.361Z,35.99
2022-08-19T17:20:41.402Z,36.55
2022-08-19T17:23:44.234Z,36.43
2022-08-19T17:26:46.540Z,36.71
2022-08-19T17:29:49.194Z,36.72
2022-08-19T17:32:51.833Z,37.16
2022-08-19T17:35:54.248Z,36.60
2022-08-19T17:38:59.064Z,36.73
2022-08-19T17:42:02.785Z,37.13
2022-08-19T17:45:05.997Z,37.37
2022-08-19T17:48:08.865Z,37.35
2022-08-19T17:51:25.590Z,37.79
2022-08-19T17:54:28.661Z,37.68
2022-08-19T17:57:41.178Z,37.78
2022-08-19T18:00:54.001Z,38.29
2022-08-19T18:03:57.058Z,38.53
2022-08-19T18:07:00.998Z,39.08
2022-08-19T18:10:03.640Z,39.38
2022-08-19T18:13:17.417Z,39.76
2022-08-19T18:16:22.104Z,40.16
2022-08-19T18:19:25.586Z,40.16
2022-08-19T18:22:38.776Z,41.85
2022-08-19T18:25:43.713Z,42.46
2022-08-19T18:28:49.687Z,43.12
2022-08-19T18:31:54.021Z,42.65
2022-08-19T18:34:56.649Z,42.05
2022-08-19T18:38:01.107Z,42.33
2022-08-19T18:41:22.700Z,45.41
2022-08-19T18:44:43.453Z,46.88
2022-08-19T18:48:04.468Z,47.94
2022-08-19T18:51:07.462Z,49.19
2022-08-19T18:54:10.403Z,54.40
2022-08-19T18:57:13.596Z,56.74
2022-08-19T19:00:16.644Z,62.92
2022-08-19T19:03:18.769Z,68.88
2022-08-19T19:06:27.570Z,71.38
2022-08-19T19:09:29.868Z,71.26
2022-08-19T19:12:36.443Z,73.72
2022-08-19T19:15:39.477Z,74.24
2022-08-19T19:18:42.541Z,73.54
2022-08-19T19:21:47.570Z,74.36
2022-08-19T19:24:51.276Z,73.89
2022-08-19T19:27:54.879Z,72.90
2022-08-19T19:31:00.556Z,70.38
2022-08-19T19:34:02.623Z,68.54
2022-08-19T19:37:05.279Z,72.88
2022-08-19T19:40:07.791Z,74.00
2022-08-19T19:43:10.334Z,74.66
2022-08-19T19:46:13.847Z,74.64
2022-08-19T19:49:16.535Z,76.99
2022-08-19T19:52:19.494Z,82.05
2022-08-19T19:55:22.345Z,82.38
2022-08-19T19:58:29.298Z,79.40
2022-08-19T20:01:31.830Z,78.71
2022-08-19T20:04:37.335Z,76.57
2022-08-19T20:07:59.245Z,77.99
2022-08-19T20:11:03.902Z,82.92
2022-08-19T20:14:11.623Z,87.10
2022-08-19T20:17:14.046Z,88.10
2022-08-19T20:20:17.939Z,87.61
2022-08-19T20:23:21.910Z,92.42
2022-08-19T20:26:32.245Z,98.31
2022-08-19T20:29:39.628Z,99.47
2022-08-19T20:32:43.788Z,100.00
2022-08-19T20:35:49.483Z,100.00
2022-08-19T20:38:52.091Z,100.00
2022-08-19T20:41:56.356Z,100.00
2022-08-19T20:44:58.761Z,100.00
2022-08-19T20:48:03.113Z,100.00
2022-08-19T20:51:06.727Z,100.00
2022-08-19T20:54:09.161Z,100.00
2022-08-19T20:57:11.290Z,100.00
2022-08-19T21:00:14.914Z,100.00
2022-08-19T21:03:19.260Z,100.00
2022-08-19T21:06:22.114Z,100.00
2022-08-19T21:09:25.342Z,100.00
2022-08-19T21:12:28.138Z,100.00
2022-08-19T21:15:30.703Z,100.00
2022-08-19T21:18:35.362Z,100.00
2022-08-19T21:21:37.549Z,100.00
2022-08-19T21:24:40.053Z,100.00
2022-08-19T21:27:42.311Z,100.00
2022-08-19T21:30:44.731Z,100.00
2022-08-19T21:33:46.896Z,100.00
2022-08-19T21:36:49.314Z,100.00
2022-08-19T21:39:51.504Z,100.00
2022-08-19T21:42:54.293Z,100.00
2022-08-19T21:45:56.423Z,100.00
2022-08-19T21:48:59.111Z,100.00
2022-08-19T21:52:01.931Z,100.00
2022-08-19T21:55:05.389Z,100.00
2022-08-19T21:58:07.532Z,100.00
2022-08-19T22:01:10.048Z,100.00
2022-08-19T22:04:12.496Z,100.00
2022-08-19T22:07:14.970Z,100.00
2022-08-19T22:10:18.325Z,100.00
2022-08-19T22:13:22.007Z,100.00
2022-08-19T22:16:24.623Z,100.00
2022-08-19T22:19:29.235Z,100.00
2022-08-19T22:22:33.102Z,100.00
2022-08-19T22:25:39.617Z,100.00
2022-08-19T22:28:42.776Z,100.00
2022-08-19T22:31:45.094Z,100.00
2022-08-19T22:34:47.510Z,100.00
2022-08-19T22:37:51.125Z,100.00
2022-08-19T22:40:54.242Z,100.00
2022-08-19T22:43:56.491Z,100.00
2022-08-19T22:46:58.935Z,100.00
2022-08-19T22:50:01.181Z,100.00
2022-08-19T22:53:07.178Z,100.00
2022-08-19T22:56:15.060Z,100.00
2022-08-19T22:59:17.956Z,100.00
2022-08-19T23:02:21.496Z,100.00
2022-08-19T23:05:28.956Z,100.00
2022-08-19T23:08:31.476Z,100.00
2022-08-19T23:11:41.550Z,100.00
2022-08-19T23:14:44.449Z,100.00
2022-08-19T23:17:46.867Z,100.00
2022-08-19T23:20:49.178Z,100.00
2022-08-19T23:23:51.672Z,100.00
2022-08-19T23:27:12.431Z,100.00
2022-08-19T23:30:26.739Z,100.00
2022-08-19T23:33:46.503Z,100.00
2022-08-19T23:36:54.145Z,100.00
2022-08-19T23:39:56.329Z,100.00
2022-08-19T23:42:58.850Z,100.00
2022-08-19T23:46:10.570Z,100.00
2022-08-19T23:49:14.914Z,100.00
2022-08-19T23:52:17.030Z,100.00
2022-08-19T23:55:21.689Z,100.00
2022-08-19T23:58:24.377Z,100.00
